Time;durP1;ratioP1;P1;durP2;ratioP2;P2;SDS_P1;SDS_P2;PMS_P1;PMS_P2;Temp;Humidity;BMP_temperature;BMP_pressure;BME280_temperature;BME280_humidity;BME280_pressure;Samples;Min_cycle;Max_cycle;Signal;HPM_P1;HPM_P2
2022/06/06 00:01:52;;;;;;;10.32;3.90;;;;;;;12.01;74.34;100070.13;5013829;28;20760;-46
2022/06/06 00:04:21;;;;;;;10.15;4.40;;;;;;;12.00;75.39;100069.28;4997029;28;20134;-41
2022/06/06 00:06:48;;;;;;;7.43;3.25;;;;;;;11.98;74.29;100068.41;4997533;28;20050;-48
2022/06/06 00:09:16;;;;;;;10.93;4.07;;;;;;;11.97;74.47;100064.09;4991613;28;20049;-45
2022/06/06 00:11:44;;;;;;;8.43;3.53;;;;;;;11.95;75.57;100060.66;4994914;28;20053;-45
2022/06/06 00:14:12;;;;;;;8.80;4.40;;;;;;;11.95;75.02;100060.66;4984798;28;20050;-46
2022/06/06 00:16:39;;;;;;;9.90;3.70;;;;;;;11.93;74.72;100047.69;4990064;28;20085;-42
2022/06/06 00:19:09;;;;;;;8.35;3.85;;;;;;;11.95;74.89;100055.47;4997069;28;20077;-45
2022/06/06 00:21:38;;;;;;;11.30;4.53;;;;;;;11.95;74.76;100050.28;4989342;28;20074;-44
2022/06/06 00:24:08;;;;;;;9.52;4.03;;;;;;;11.95;74.84;100050.28;4978410;28;20039;-42
2022/06/06 00:26:38;;;;;;;8.93;3.80;;;;;;;11.93;75.51;100039.91;4991016;28;20434;-47
2022/06/06 00:29:09;;;;;;;8.82;3.60;;;;;;;11.91;75.39;100044.25;4988566;28;20058;-43
2022/06/06 00:34:49;;;;;;;10.05;4.38;;;;;;;11.88;74.78;100028.69;4987052;28;20049;-48
2022/06/06 00:37:21;;;;;;;10.90;4.40;;;;;;;11.89;74.97;100026.97;4992172;28;20392;-47
2022/06/06 00:39:47;;;;;;;8.93;3.95;;;;;;;11.86;75.76;100014.03;4983414;28;20117;-43
2022/06/06 00:42:21;;;;;;;10.80;4.70;;;;;;;11.86;76.08;100021.81;4985848;28;20096;-43
2022/06/06 00:45:08;;;;;;;10.45;3.63;;;;;;;11.82;75.40;100011.44;4981929;28;20042;-46
2022/06/06 00:50:16;;;;;;;10.50;4.90;;;;;;;11.78;76.37;100012.34;5017904;27;21242;-51
2022/06/06 00:52:47;;;;;;;11.63;5.28;;;;;;;11.77;74.96;100005.44;5003665;28;20046;-39
2022/06/06 00:55:19;;;;;;;10.45;4.38;;;;;;;11.77;75.39;100005.44;5011040;28;20409;-45
2022/06/06 00:57:51;;;;;;;11.57;4.40;;;;;;;11.75;75.57;100002.00;5012087;28;20100;-44
2022/06/06 01:00:20;;;;;;;8.98;4.25;;;;;;;11.76;75.46;100002.88;5000522;28;20049;-45
2022/06/06 01:02:52;;;;;;;11.70;5.22;;;;;;;11.76;75.42;100003.69;5010727;28;20042;-40
2022/06/06 01:05:21;;;;;;;10.18;4.63;;;;;;;11.74;75.47;100005.47;5007698;28;20061;-44
2022/06/06 01:07:48;;;;;;;9.13;3.92;;;;;;;11.73;76.09;100008.94;5007425;28;20073;-41
2022/06/06 01:10:15;;;;;;;8.65;4.18;;;;;;;11.73;75.26;100005.47;5005310;28;20053;-38
2022/06/06 01:12:47;;;;;;;9.90;4.07;;;;;;;11.73;76.03;99998.56;5012009;28;20058;-38
2022/06/06 01:15:16;;;;;;;11.68;6.03;;;;;;;11.73;75.42;99998.56;5012557;28;20444;-45
2022/06/06 07:00:52;;;;;;;2.13;1.23;;;;;;;11.91;77.27;100012.25;5062694;27;20910;-39
2022/06/06 07:40:30;;;;;;;3.28;1.60;;;;;;;11.91;76.91;100035.59;5077027;27;20404;-45
2022/06/06 07:43:28;;;;;;;2.63;1.73;;;;;;;11.88;77.46;100035.63;5037956;28;20048;-41
2022/06/06 07:46:38;;;;;;;3.15;1.65;;;;;;;11.87;76.84;100032.19;5031549;28;20041;-39
2022/06/06 07:49:14;;;;;;;3.55;1.42;;;;;;;11.97;76.79;100030.38;5029428;28;20409;-42
2022/06/06 07:51:50;;;;;;;2.50;1.35;;;;;;;11.98;77.73;100034.69;5039182;28;20448;-43
2022/06/06 14:14:39;;;;;;;5.20;3.00;;;;;;;17.70;61.44;100113.94;5043936;28;20628;-42
2022/06/06 14:17:21;;;;;;;5.35;3.20;;;;;;;17.69;60.88;100107.00;4996779;28;20360;-42
2022/06/06 14:27:38;;;;;;;6.13;3.30;;;;;;;17.58;60.71;100109.09;5067340;28;20917;-50
2022/06/06 14:40:56;;;;;;;5.50;2.92;;;;;;;17.21;60.99;100108.44;5053325;28;20414;-45
2022/06/06 14:43:23;;;;;;;6.00;2.65;;;;;;;17.19;60.98;100113.72;5015080;28;20049;-43
2022/06/06 14:45:58;;;;;;;5.35;3.60;;;;;;;17.20;61.96;100104.94;5035008;28;20411;-46
2022/06/06 14:48:44;;;;;;;4.95;2.92;;;;;;;17.23;61.53;100105.78;5029430;28;20041;-49
2022/06/06 14:51:14;;;;;;;4.57;3.03;;;;;;;17.31;61.75;100103.78;5014062;28;20049;-43
2022/06/06 14:53:47;;;;;;;3.60;2.50;;;;;;;17.35;61.40;100100.16;5033255;28;20104;-41
2022/06/06 14:56:35;;;;;;;4.97;3.00;;;;;;;17.38;61.09;100102.69;5006905;28;20056;-44
2022/06/06 14:59:42;;;;;;;4.20;2.35;;;;;;;17.45;60.70;100104.22;5013157;28;20700;-44
2022/06/06 15:02:14;;;;;;;6.53;3.20;;;;;;;17.54;60.61;100102.22;5026783;28;20106;-45
2022/06/06 15:04:41;;;;;;;4.45;2.72;;;;;;;17.54;60.88;100102.22;5030464;28;20763;-45
2022/06/06 15:07:10;;;;;;;5.10;3.15;;;;;;;17.53;60.34;100101.34;5022687;28;20045;-44
2022/06/06 15:12:27;;;;;;;5.15;3.20;;;;;;;17.52;60.40;100101.41;5094854;27;20397;-43
2022/06/06 15:15:01;;;;;;;6.07;3.08;;;;;;;17.47;60.39;100096.34;5051995;28;20048;-42
2022/06/06 15:17:32;;;;;;;6.90;4.72;;;;;;;17.41;60.50;100105.22;5055049;28;20455;-42
2022/06/06 15:20:03;;;;;;;6.30;3.42;;;;;;;17.36;60.88;100099.25;5052434;28;20044;-40
2022/06/06 15:22:33;;;;;;;4.40;3.17;;;;;;;17.35;60.73;100100.16;5070969;28;20779;-44
2022/06/06 15:25:00;;;;;;;4.45;3.30;;;;;;;17.34;60.64;100090.59;5076373;28;20118;-48
2022/06/06 15:27:52;;;;;;;5.93;3.00;;;;;;;17.24;61.08;100097.00;5075375;28;20135;-45
2022/06/06 15:30:47;;;;;;;5.50;4.55;;;;;;;17.23;60.36;100093.56;5075911;28;20511;-43
2022/06/06 16:16:02;;;;;;;6.07;3.63;;;;;;;17.42;61.17;100072.91;5078088;27;21131;-47
2022/06/06 16:18:40;;;;;;;5.07;2.92;;;;;;;17.42;60.83;100075.53;5038491;28;20045;-43
2022/06/06 16:21:13;;;;;;;4.68;3.05;;;;;;;17.47;61.48;100070.16;5017096;28;20053;-46
2022/06/06 16:23:55;;;;;;;5.90;2.90;;;;;;;17.52;60.58;100069.97;5037352;28;20496;-49
2022/06/06 16:26:29;;;;;;;5.32;3.60;;;;;;;17.54;61.28;100076.03;5035161;28;20056;-44
2022/06/06 16:29:05;;;;;;;5.03;3.10;;;;;;;17.55;60.88;100072.50;5036575;28;20061;-45
2022/06/06 16:31:57;;;;;;;6.68;2.90;;;;;;;17.53;60.63;100064.69;5036563;28;20511;-48
2022/06/06 16:34:33;;;;;;;6.53;3.35;;;;;;;17.53;60.45;100064.69;5037134;28;20037;-49
2022/06/06 16:50:46;;;;;;;4.78;2.65;;;;;;;17.45;60.58;100078.06;5060041;27;20401;-47
2022/06/06 17:01:34;;;;;;;6.28;3.55;;;;;;;17.28;61.28;100075.06;5032478;28;20415;-45
2022/06/06 20:04:56;;;;;;;10.77;5.60;;;;;;;16.12;64.34;100057.31;5029188;28;20406;-45
2022/06/06 20:07:29;;;;;;;8.80;4.97;;;;;;;16.08;64.25;100060.91;5017882;28;20045;-40
2022/06/06 20:10:00;;;;;;;10.02;5.22;;;;;;;16.06;64.34;100062.69;5021888;28;20077;-45
2022/06/06 20:12:29;;;;;;;9.65;5.10;;;;;;;16.03;64.80;100065.38;5034231;28;20057;-47
2022/06/06 20:14:59;;;;;;;10.70;5.68;;;;;;;16.02;64.65;100066.28;5020524;28;20053;-45
2022/06/06 20:17:30;;;;;;;11.50;5.00;;;;;;;15.98;64.52;100064.66;5019394;28;20058;-46
2022/06/06 20:20:35;;;;;;;11.43;5.50;;;;;;;15.89;64.68;100077.00;5016979;28;20045;-42
2022/06/06 20:23:19;;;;;;;9.90;5.25;;;;;;;15.92;64.63;100082.16;5003037;28;20489;-48
2022/06/06 20:25:50;;;;;;;11.13;5.22;;;;;;;15.89;64.81;100074.41;5016558;28;20049;-44
2022/06/06 20:28:28;;;;;;;11.82;6.43;;;;;;;15.85;64.92;100075.38;5021606;28;20056;-45
2022/06/06 20:52:19;;;;;;;10.55;5.38;;;;;;;15.77;65.52;100070.31;5015572;28;20920;-42
2022/06/06 20:54:51;;;;;;;10.57;5.70;;;;;;;15.73;65.65;100062.59;4978412;28;20054;-45
2022/06/06 20:58:02;;;;;;;10.05;5.30;;;;;;;15.64;65.53;100061.91;4976235;28;20054;-43
2022/06/06 21:00:32;;;;;;;12.00;5.75;;;;;;;15.67;65.84;100061.84;4965142;28;20058;-45
2022/06/06 21:02:59;;;;;;;9.70;5.03;;;;;;;15.64;65.43;100061.91;4976965;28;20075;-44
2022/06/06 21:05:30;;;;;;;10.00;5.93;;;;;;;15.62;65.97;100058.50;4974048;28;20082;-42
2022/06/06 21:07:58;;;;;;;9.85;5.43;;;;;;;15.60;65.99;100060.28;4992704;28;20062;-47
2022/06/06 21:10:27;;;;;;;11.68;6.30;;;;;;;15.59;66.51;100060.31;4973786;28;20542;-43
2022/06/06 21:12:56;;;;;;;10.82;6.07;;;;;;;15.57;65.59;100065.56;4972306;28;20097;-46
2022/06/06 21:15:23;;;;;;;9.90;5.55;;;;;;;15.53;66.27;100050.88;4975193;28;20066;-48
2022/06/06 21:17:50;;;;;;;10.30;5.28;;;;;;;15.51;66.48;100055.28;4985397;28;20081;-45
2022/06/06 21:20:18;;;;;;;11.77;5.22;;;;;;;15.50;65.79;100059.63;4983637;28;20483;-49
2022/06/06 21:22:48;;;;;;;11.95;6.88;;;;;;;15.47;66.14;100061.47;4981864;28;20386;-44
2022/06/06 21:25:14;;;;;;;;;;;;;;;15.26;67.11;100061.03;4983121;28;20046;-56
2022/06/06 21:27:41;;;;;;;11.45;5.40;;;;;;;15.39;66.55;100059.88;4982080;28;19945;-45
2022/06/06 21:30:08;;;;;;;11.13;5.40;;;;;;;15.39;66.45;100057.28;4981271;28;20055;-53
2022/06/06 21:32:35;;;;;;;9.07;4.90;;;;;;;15.39;66.13;100057.28;4981440;28;20109;-50
2022/06/06 21:35:03;;;;;;;13.48;6.07;;;;;;;15.38;66.25;100058.19;4983192;28;20062;-45
2022/06/06 21:37:29;;;;;;;10.55;5.82;;;;;;;15.37;66.56;100063.44;4980521;28;20050;-49
2022/06/06 21:39:56;;;;;;;12.63;5.80;;;;;;;15.36;66.38;100059.94;4978094;28;20069;-45
2022/06/06 21:42:23;;;;;;;11.40;6.15;;;;;;;15.35;66.49;100063.47;4972670;28;20062;-47
2022/06/06 21:44:49;;;;;;;12.82;6.05;;;;;;;15.34;66.90;100056.53;4975299;28;20043;-41
2022/06/06 21:47:17;;;;;;;13.02;6.20;;;;;;;15.33;67.02;100048.72;4977103;28;20042;-46
2022/06/06 21:49:43;;;;;;;13.20;6.03;;;;;;;15.32;66.49;100053.09;4975891;28;20093;-46
2022/06/06 21:52:10;;;;;;;11.55;6.00;;;;;;;15.31;67.01;100051.38;4980787;28;20068;-47
2022/06/06 21:54:37;;;;;;;11.32;6.15;;;;;;;15.31;66.94;100048.75;4984736;28;20069;-41
2022/06/06 21:57:07;;;;;;;10.88;5.68;;;;;;;15.30;66.73;100044.41;4983237;28;20042;-49
2022/06/06 21:59:36;;;;;;;13.50;5.72;;;;;;;15.30;67.04;100039.19;4983171;28;20570;-46
2022/06/06 22:02:05;;;;;;;13.05;5.53;;;;;;;15.29;66.74;100037.50;4974616;28;20047;-46
2022/06/06 22:04:34;;;;;;;11.48;6.20;;;;;;;15.26;67.59;100030.59;4964334;28;21244;-45
2022/06/06 22:07:02;;;;;;;10.13;5.22;;;;;;;15.24;67.79;100026.31;4956374;28;20379;-46
2022/06/06 22:09:33;;;;;;;11.77;6.05;;;;;;;15.24;67.65;100023.69;4977833;28;20047;-46
2022/06/06 22:12:02;;;;;;;11.32;6.22;;;;;;;15.22;67.13;100018.50;4961252;28;20039;-49
2022/06/06 22:14:31;;;;;;;11.05;5.72;;;;;;;15.21;67.03;100026.38;4961203;28;20057;-46
2022/06/06 22:16:59;;;;;;;11.40;6.00;;;;;;;15.20;67.77;100022.06;4957503;28;20530;-46
2022/06/06 22:19:26;;;;;;;11.68;6.68;;;;;;;15.19;67.78;100022.97;4961650;28;20050;-46
2022/06/06 22:22:13;;;;;;;11.00;5.63;;;;;;;15.15;67.81;100019.53;4960611;28;20058;-47
2022/06/06 22:24:39;;;;;;;12.77;5.65;;;;;;;15.13;67.68;100009.13;4960812;28;20458;-47
2022/06/06 22:27:06;;;;;;;12.27;5.93;;;;;;;15.12;68.30;100017.88;4962615;28;20058;-45
2022/06/06 22:29:33;;;;;;;12.32;6.78;;;;;;;15.11;67.88;100028.31;4964067;28;20102;-51
2022/06/06 22:32:00;;;;;;;13.88;6.50;;;;;;;15.10;68.10;100017.03;4955674;28;20051;-48
2022/06/06 22:34:28;;;;;;;12.07;5.85;;;;;;;15.10;68.09;100019.63;4963419;28;20085;-51
2022/06/06 22:36:56;;;;;;;11.50;5.82;;;;;;;15.11;68.73;100023.09;4961554;28;20070;-45
2022/06/06 22:39:23;;;;;;;12.90;6.70;;;;;;;15.08;68.10;100018.81;4965914;28;20050;-44
2022/06/06 22:41:49;;;;;;;12.57;6.38;;;;;;;15.08;68.14;100016.22;4958900;28;20051;-45
2022/06/06 22:44:16;;;;;;;14.00;6.13;;;;;;;15.08;68.44;100016.22;4958322;28;20518;-49
2022/06/06 22:46:45;;;;;;;11.20;5.68;;;;;;;15.05;68.22;100013.66;4952709;28;20055;-44
2022/06/06 22:49:14;;;;;;;11.73;5.95;;;;;;;15.03;68.44;100018.06;4963172;28;20082;-45
2022/06/06 22:51:41;;;;;;;11.07;5.88;;;;;;;15.00;68.41;100018.97;4960359;28;20070;-43
2022/06/06 22:54:09;;;;;;;15.77;6.00;;;;;;;14.99;68.10;100008.56;4960889;28;20141;-43
2022/06/06 22:56:35;;;;;;;12.98;6.13;;;;;;;14.98;68.18;100017.31;4960328;28;20150;-47
2022/06/06 22:59:02;;;;;;;11.00;5.88;;;;;;;14.98;68.67;100014.69;4957062;28;20050;-50
2022/06/06 23:01:29;;;;;;;14.57;7.25;;;;;;;14.98;68.44;100009.47;4957018;28;20043;-49
2022/06/06 23:03:56;;;;;;;13.73;6.97;;;;;;;14.97;68.48;99997.34;4954260;28;20059;-45
2022/06/06 23:06:23;;;;;;;14.23;7.38;;;;;;;14.97;68.56;100002.56;4956315;28;20072;-48
2022/06/06 23:08:49;;;;;;;15.85;7.97;;;;;;;14.96;68.87;99996.47;4957510;28;20055;-44
2022/06/06 23:11:16;;;;;;;14.68;7.30;;;;;;;14.96;68.86;99993.03;4957280;28;20105;-44
2022/06/06 23:13:43;;;;;;;18.48;8.88;;;;;;;14.94;68.80;99992.19;4954565;28;20047;-43
2022/06/06 23:16:11;;;;;;;19.40;8.10;;;;;;;14.94;68.80;99994.78;4956464;28;20057;-46
2022/06/06 23:18:39;;;;;;;17.42;8.30;;;;;;;14.94;68.38;99986.97;4954340;28;20050;-44
2022/06/06 23:21:07;;;;;;;16.60;8.38;;;;;;;14.93;68.76;99990.47;4954496;28;20050;-44
2022/06/06 23:23:35;;;;;;;18.55;8.70;;;;;;;14.92;68.56;99993.97;4951412;28;20109;-43
2022/06/06 23:26:02;;;;;;;18.75;8.32;;;;;;;14.90;68.94;99989.63;4958191;28;20102;-46
2022/06/06 23:28:29;;;;;;;22.55;8.98;;;;;;;14.89;68.90;99995.75;4954997;28;20058;-48
2022/06/06 23:30:56;;;;;;;17.25;8.60;;;;;;;14.89;68.40;99990.53;4956322;28;20595;-47
2022/06/06 23:33:28;;;;;;;16.05;8.48;;;;;;;14.90;68.77;99992.25;4949056;28;20058;-42
2022/06/06 23:35:59;;;;;;;20.10;9.35;;;;;;;14.88;68.88;99978.41;4955594;28;20062;-42
2022/06/06 23:38:32;;;;;;;18.35;8.45;;;;;;;14.89;68.72;99981.84;4954685;28;20717;-46
2022/06/06 23:41:00;;;;;;;21.20;9.30;;;;;;;14.88;68.50;99986.22;4956169;28;20538;-45
2022/06/06 23:43:36;;;;;;;18.38;8.80;;;;;;;14.89;69.03;99984.44;4959941;28;20074;-46
2022/06/06 23:48:58;;;;;;;15.32;8.40;;;;;;;14.88;69.29;99978.41;4958638;28;20074;-42
2022/06/06 23:51:31;;;;;;;18.02;9.15;;;;;;;14.89;68.96;99979.22;4961858;28;20062;-45
2022/06/06 23:54:02;;;;;;;16.85;8.32;;;;;;;14.89;68.86;99977.50;4955797;28;20521;-50
2022/06/06 23:56:39;;;;;;;21.58;8.75;;;;;;;14.87;69.06;99971.47;4957096;28;20047;-46
2022/06/06 23:59:06;;;;;;;18.33;8.43;;;;;;;14.87;69.04;99970.59;4955679;28;20057;-44
